sensor_id;sensor_type;location;lat;lon;timestamp;pressure;altitude;pressure_sealevel;temperature;humidity
28000;BME280;15328;50.860;10.562;2022-09-09T00:02:21;96087.69;;;16.58;59.00
28000;BME280;15328;50.860;10.562;2022-09-09T00:07:29;96081.75;;;16.51;59.28
28000;BME280;15328;50.860;10.562;2022-09-09T00:13:13;96069.41;;;16.45;59.09
28000;BME280;15328;50.860;10.562;2022-09-09T00:28:04;96055.97;;;16.45;59.42
28000;BME280;15328;50.860;10.562;2022-09-09T00:33:12;96054.59;;;16.42;60.00
28000;BME280;15328;50.860;10.562;2022-09-09T00:38:16;96047.06;;;16.39;60.17
28000;BME280;15328;50.860;10.562;2022-09-09T00:43:24;96047.91;;;16.45;59.68
28000;BME280;15328;50.860;10.562;2022-09-09T00:48:50;96044.44;;;16.49;59.82
28000;BME280;15328;50.860;10.562;2022-09-09T01:04:08;96049.03;;;16.59;59.44
28000;BME280;15328;50.860;10.562;2022-09-09T01:14:38;96061.69;;;16.68;59.47
28000;BME280;15328;50.860;10.562;2022-09-09T01:25:28;96051.78;;;16.74;59.18
28000;BME280;15328;50.860;10.562;2022-09-09T01:30:00;96058.78;;;16.80;58.81
28000;BME280;15328;50.860;10.562;2022-09-09T01:35:01;96062.00;;;16.82;58.46
28000;BME280;15328;50.860;10.562;2022-09-09T01:40:02;96059.31;;;16.87;58.44
28000;BME280;15328;50.860;10.562;2022-09-09T01:45:02;96046.88;;;16.61;58.90
28000;BME280;15328;50.860;10.562;2022-09-09T01:50:03;96047.75;;;16.77;58.56
28000;BME280;15328;50.860;10.562;2022-09-09T01:55:04;96053.63;;;16.68;58.43
28000;BME280;15328;50.860;10.562;2022-09-09T02:00:08;96047.66;;;16.51;58.86
28000;BME280;15328;50.860;10.562;2022-09-09T02:05:35;96052.78;;;16.63;59.06
28000;BME280;15328;50.860;10.562;2022-09-09T02:10:40;96066.47;;;16.61;58.57
28000;BME280;15328;50.860;10.562;2022-09-09T02:20:52;96066.47;;;16.61;58.53
28000;BME280;15328;50.860;10.562;2022-09-09T02:25:53;96065.75;;;16.71;58.50
28000;BME280;15328;50.860;10.562;2022-09-09T02:30:55;96072.38;;;16.63;58.19
28000;BME280;15328;50.860;10.562;2022-09-09T02:35:56;96069.94;;;16.52;58.63
28000;BME280;15328;50.860;10.562;2022-09-09T02:41:01;96055.47;;;16.53;58.22
28000;BME280;15328;50.860;10.562;2022-09-09T02:51:24;96060.31;;;16.61;58.75
28000;BME280;15328;50.860;10.562;2022-09-09T02:56:31;96060.56;;;16.54;59.27
28000;BME280;15328;50.860;10.562;2022-09-09T03:01:33;96059.47;;;16.50;59.13
28000;BME280;15328;50.860;10.562;2022-09-09T03:06:35;96064.03;;;16.50;59.54
28000;BME280;15328;50.860;10.562;2022-09-09T03:11:36;96060.22;;;16.41;60.08
28000;BME280;15328;50.860;10.562;2022-09-09T03:16:36;96057.59;;;16.51;59.46
28000;BME280;15328;50.860;10.562;2022-09-09T03:21:36;96065.09;;;16.44;59.18
28000;BME280;15328;50.860;10.562;2022-09-09T03:26:37;96069.63;;;16.43;58.88
28000;BME280;15328;50.860;10.562;2022-09-09T03:31:37;96071.56;;;16.53;58.83
28000;BME280;15328;50.860;10.562;2022-09-09T03:36:38;96071.03;;;16.56;59.07
28000;BME280;15328;50.860;10.562;2022-09-09T03:41:39;96064.31;;;16.48;58.82
28000;BME280;15328;50.860;10.562;2022-09-09T03:46:39;96065.63;;;16.46;58.67
28000;BME280;15328;50.860;10.562;2022-09-09T03:51:39;96067.19;;;16.36;58.98
28000;BME280;15328;50.860;10.562;2022-09-09T03:56:40;96053.22;;;16.29;59.04
28000;BME280;15328;50.860;10.562;2022-09-09T04:01:41;96059.91;;;16.22;59.39
28000;BME280;15328;50.860;10.562;2022-09-09T04:06:41;96050.25;;;16.26;59.60
28000;BME280;15328;50.860;10.562;2022-09-09T04:11:42;96048.59;;;16.15;59.75
28000;BME280;15328;50.860;10.562;2022-09-09T04:16:42;96037.31;;;16.13;59.82
28000;BME280;15328;50.860;10.562;2022-09-09T04:21:44;96037.03;;;16.09;60.07
28000;BME280;15328;50.860;10.562;2022-09-09T04:26:44;96041.00;;;15.96;60.58
28000;BME280;15328;50.860;10.562;2022-09-09T04:31:45;96052.06;;;16.15;59.98
28000;BME280;15328;50.860;10.562;2022-09-09T04:36:45;96038.72;;;16.20;59.53
28000;BME280;15328;50.860;10.562;2022-09-09T04:41:45;96041.06;;;16.12;59.92
28000;BME280;15328;50.860;10.562;2022-09-09T04:46:47;96044.53;;;16.07;60.06
28000;BME280;15328;50.860;10.562;2022-09-09T04:51:48;96048.00;;;15.97;60.70
28000;BME280;15328;50.860;10.562;2022-09-09T04:56:52;96063.56;;;16.00;61.32
28000;BME280;15328;50.860;10.562;2022-09-09T05:01:52;96057.69;;;16.08;60.13
28000;BME280;15328;50.860;10.562;2022-09-09T05:06:55;96056.88;;;16.03;60.21
28000;BME280;15328;50.860;10.562;2022-09-09T05:11:55;96059.59;;;16.13;60.39
28000;BME280;15328;50.860;10.562;2022-09-09T05:16:55;96051.34;;;16.25;59.59
28000;BME280;15328;50.860;10.562;2022-09-09T05:21:56;96060.72;;;16.22;60.12
28000;BME280;15328;50.860;10.562;2022-09-09T05:26:56;96049.16;;;16.17;59.90
28000;BME280;15328;50.860;10.562;2022-09-09T05:31:59;96053.91;;;16.04;60.43
28000;BME280;15328;50.860;10.562;2022-09-09T05:36:59;96051.00;;;16.11;60.63
28000;BME280;15328;50.860;10.562;2022-09-09T05:41:59;96051.50;;;16.03;61.38
28000;BME280;15328;50.860;10.562;2022-09-09T05:47:00;96064.00;;;15.82;61.98
28000;BME280;15328;50.860;10.562;2022-09-09T05:52:00;96062.91;;;15.83;62.64
28000;BME280;15328;50.860;10.562;2022-09-09T05:57:00;96068.94;;;16.00;61.40
28000;BME280;15328;50.860;10.562;2022-09-09T06:02:00;96072.16;;;16.07;61.96
28000;BME280;15328;50.860;10.562;2022-09-09T06:07:01;96071.22;;;16.39;60.66
28000;BME280;15328;50.860;10.562;2022-09-09T06:12:01;96076.59;;;16.34;60.29
28000;BME280;15328;50.860;10.562;2022-09-09T06:17:01;96075.00;;;16.38;60.35
28000;BME280;15328;50.860;10.562;2022-09-09T06:22:02;96078.41;;;16.18;61.09
28000;BME280;15328;50.860;10.562;2022-09-09T06:27:02;96078.47;;;16.33;60.70
28000;BME280;15328;50.860;10.562;2022-09-09T06:32:03;96083.47;;;16.15;61.14
28000;BME280;15328;50.860;10.562;2022-09-09T06:37:03;96087.88;;;16.36;61.03
28000;BME280;15328;50.860;10.562;2022-09-09T06:42:04;96096.28;;;16.65;60.17
28000;BME280;15328;50.860;10.562;2022-09-09T06:47:04;96097.72;;;16.73;59.56
28000;BME280;15328;50.860;10.562;2022-09-09T06:52:05;96097.47;;;16.94;59.34
28000;BME280;15328;50.860;10.562;2022-09-09T06:57:06;96097.75;;;16.93;58.67
28000;BME280;15328;50.860;10.562;2022-09-09T07:02:07;96096.41;;;16.95;58.61
28000;BME280;15328;50.860;10.562;2022-09-09T07:07:07;96104.22;;;17.17;58.33
28000;BME280;15328;50.860;10.562;2022-09-09T07:12:09;96105.31;;;17.37;58.04
28000;BME280;15328;50.860;10.562;2022-09-09T07:17:10;96105.31;;;17.52;56.97
28000;BME280;15328;50.860;10.562;2022-09-09T07:22:10;96106.13;;;17.52;56.83
28000;BME280;15328;50.860;10.562;2022-09-09T07:27:10;96106.41;;;17.46;56.84
28000;BME280;15328;50.860;10.562;2022-09-09T07:32:11;96110.69;;;17.47;57.41
28000;BME280;15328;50.860;10.562;2022-09-09T07:37:11;96122.28;;;17.78;57.00
28000;BME280;15328;50.860;10.562;2022-09-09T07:42:13;96131.84;;;18.35;55.51
28000;BME280;15328;50.860;10.562;2022-09-09T07:47:14;96128.31;;;18.49;54.92
28000;BME280;15328;50.860;10.562;2022-09-09T07:52:15;96120.16;;;18.75;54.41
28000;BME280;15328;50.860;10.562;2022-09-09T07:57:15;96127.19;;;18.71;52.87
28000;BME280;15328;50.860;10.562;2022-09-09T08:02:16;96124.50;;;18.71;53.44
28000;BME280;15328;50.860;10.562;2022-09-09T08:07:16;96120.38;;;18.83;53.93
28000;BME280;15328;50.860;10.562;2022-09-09T08:12:17;96141.31;;;19.02;53.26
28000;BME280;15328;50.860;10.562;2022-09-09T08:17:18;96145.78;;;19.17;52.93
28000;BME280;15328;50.860;10.562;2022-09-09T08:22:18;96138.06;;;19.05;52.86
28000;BME280;15328;50.860;10.562;2022-09-09T08:27:19;96135.56;;;19.19;52.80
28000;BME280;15328;50.860;10.562;2022-09-09T08:32:19;96140.13;;;19.23;52.89
28000;BME280;15328;50.860;10.562;2022-09-09T08:37:19;96153.53;;;19.33;52.33
28000;BME280;15328;50.860;10.562;2022-09-09T08:57:38;96156.53;;;20.29;50.57
28000;BME280;15328;50.860;10.562;2022-09-09T09:03:22;96167.53;;;20.09;49.99
28000;BME280;15328;50.860;10.562;2022-09-09T09:13:13;96176.69;;;20.13;49.76
28000;BME280;15328;50.860;10.562;2022-09-09T09:18:14;96175.47;;;19.95;50.58
28000;BME280;15328;50.860;10.562;2022-09-09T09:23:23;96164.66;;;20.00;51.20
28000;BME280;15328;50.860;10.562;2022-09-09T09:28:26;96171.44;;;20.21;50.11
28000;BME280;15328;50.860;10.562;2022-09-09T09:33:29;96174.72;;;20.18;50.41
28000;BME280;15328;50.860;10.562;2022-09-09T09:38:32;96178.00;;;20.15;50.73
28000;BME280;15328;50.860;10.562;2022-09-09T09:43:34;96177.78;;;20.64;50.11
28000;BME280;15328;50.860;10.562;2022-09-09T09:48:35;96184.00;;;21.08;47.91
28000;BME280;15328;50.860;10.562;2022-09-09T09:53:36;96184.28;;;20.87;48.55
28000;BME280;15328;50.860;10.562;2022-09-09T10:03:49;96168.09;;;20.34;49.50
28000;BME280;15328;50.860;10.562;2022-09-09T10:08:50;96162.63;;;20.68;49.09
28000;BME280;15328;50.860;10.562;2022-09-09T10:19:04;96157.25;;;21.68;47.45
28000;BME280;15328;50.860;10.562;2022-09-09T10:24:29;96146.34;;;22.05;46.13
28000;BME280;15328;50.860;10.562;2022-09-09T10:39:40;96125.81;;;24.17;39.61
28000;BME280;15328;50.860;10.562;2022-09-09T10:44:45;96135.28;;;23.39;39.85
28000;BME280;15328;50.860;10.562;2022-09-09T10:54:55;96135.56;;;22.19;42.67
28000;BME280;15328;50.860;10.562;2022-09-09T10:59:58;96134.00;;;21.80;43.78
28000;BME280;15328;50.860;10.562;2022-09-09T11:05:05;96130.75;;;21.65;44.77
28000;BME280;15328;50.860;10.562;2022-09-09T11:10:13;96145.25;;;21.36;46.22
28000;BME280;15328;50.860;10.562;2022-09-09T11:15:22;96146.50;;;21.25;46.50
28000;BME280;15328;50.860;10.562;2022-09-09T11:20:25;96152.63;;;21.49;45.99
28000;BME280;15328;50.860;10.562;2022-09-09T11:25:32;96139.03;;;21.87;45.14
28000;BME280;15328;50.860;10.562;2022-09-09T11:35:46;96108.75;;;22.72;40.77
28000;BME280;15328;50.860;10.562;2022-09-09T11:40:54;96117.72;;;23.23;37.28
28000;BME280;15328;50.860;10.562;2022-09-09T11:45:55;96124.78;;;23.82;36.16
28000;BME280;15328;50.860;10.562;2022-09-09T11:51:00;96150.81;;;24.28;36.50
28000;BME280;15328;50.860;10.562;2022-09-09T11:56:04;96126.94;;;24.56;35.15
28000;BME280;15328;50.860;10.562;2022-09-09T12:01:15;96128.97;;;24.81;32.78
28000;BME280;15328;50.860;10.562;2022-09-09T12:06:17;96110.97;;;25.03;32.23
28000;BME280;15328;50.860;10.562;2022-09-09T12:11:25;96128.44;;;25.45;33.16
28000;BME280;15328;50.860;10.562;2022-09-09T12:16:35;96110.69;;;25.56;31.24
28000;BME280;15328;50.860;10.562;2022-09-09T12:21:49;96130.53;;;25.65;29.67
28000;BME280;15328;50.860;10.562;2022-09-09T12:32:00;96140.16;;;25.71;30.95
28000;BME280;15328;50.860;10.562;2022-09-09T12:42:22;96140.03;;;24.93;33.80
28000;BME280;15328;50.860;10.562;2022-09-09T12:47:43;96132.53;;;24.51;34.51
28000;BME280;15328;50.860;10.562;2022-09-09T12:52:45;96135.44;;;25.03;33.54
28000;BME280;15328;50.860;10.562;2022-09-09T12:57:47;96120.03;;;24.41;33.79
28000;BME280;15328;50.860;10.562;2022-09-09T13:03:00;96124.19;;;24.16;32.66
28000;BME280;15328;50.860;10.562;2022-09-09T13:08:02;96118.91;;;24.42;31.63
28000;BME280;15328;50.860;10.562;2022-09-09T13:13:03;96112.06;;;24.45;32.07
28000;BME280;15328;50.860;10.562;2022-09-09T13:18:04;96108.94;;;24.69;32.41
28000;BME280;15328;50.860;10.562;2022-09-09T13:23:08;96123.44;;;24.64;31.14
28000;BME280;15328;50.860;10.562;2022-09-09T13:28:18;96125.44;;;24.81;32.24
28000;BME280;15328;50.860;10.562;2022-09-09T13:33:21;96115.09;;;24.52;32.06
28000;BME280;15328;50.860;10.562;2022-09-09T13:38:22;96108.00;;;24.82;32.25
28000;BME280;15328;50.860;10.562;2022-09-09T13:43:23;96098.09;;;24.86;31.43
28000;BME280;15328;50.860;10.562;2022-09-09T13:48:25;96086.72;;;24.84;31.56
28000;BME280;15328;50.860;10.562;2022-09-09T13:53:26;96088.06;;;24.47;31.72
28000;BME280;15328;50.860;10.562;2022-09-09T13:58:26;96077.47;;;24.05;32.05
28000;BME280;15328;50.860;10.562;2022-09-09T14:03:26;96071.75;;;24.38;32.15
28000;BME280;15328;50.860;10.562;2022-09-09T14:08:27;96078.56;;;24.04;33.10
28000;BME280;15328;50.860;10.562;2022-09-09T14:13:32;96084.44;;;23.67;34.07
28000;BME280;15328;50.860;10.562;2022-09-09T14:18:33;96079.50;;;23.10;35.07
28000;BME280;15328;50.860;10.562;2022-09-09T14:23:34;96061.97;;;23.30;36.81
28000;BME280;15328;50.860;10.562;2022-09-09T14:28:34;96068.41;;;23.57;36.23
28000;BME280;15328;50.860;10.562;2022-09-09T14:33:35;96051.66;;;23.41;36.14
28000;BME280;15328;50.860;10.562;2022-09-09T14:38:36;96056.88;;;23.15;37.07
28000;BME280;15328;50.860;10.562;2022-09-09T14:43:40;96059.16;;;22.86;38.81
28000;BME280;15328;50.860;10.562;2022-09-09T14:48:40;96066.28;;;22.95;38.59
28000;BME280;15328;50.860;10.562;2022-09-09T14:53:41;96066.00;;;22.42;39.50
28000;BME280;15328;50.860;10.562;2022-09-09T14:58:41;96066.81;;;22.15;40.55
28000;BME280;15328;50.860;10.562;2022-09-09T15:03:42;96068.81;;;22.09;40.66
28000;BME280;15328;50.860;10.562;2022-09-09T15:08:44;96080.56;;;21.86;40.06
28000;BME280;15328;50.860;10.562;2022-09-09T15:13:44;96075.53;;;21.66;40.53
28000;BME280;15328;50.860;10.562;2022-09-09T15:18:45;96076.34;;;21.66;41.15
28000;BME280;15328;50.860;10.562;2022-09-09T15:23:46;96072.69;;;21.57;40.54
28000;BME280;15328;50.860;10.562;2022-09-09T15:28:47;96080.69;;;21.48;41.16
28000;BME280;15328;50.860;10.562;2022-09-09T15:33:53;96061.19;;;21.33;41.45
28000;BME280;15328;50.860;10.562;2022-09-09T15:38:54;96068.91;;;21.20;42.35
28000;BME280;15328;50.860;10.562;2022-09-09T15:43:54;96062.44;;;21.40;42.44
28000;BME280;15328;50.860;10.562;2022-09-09T15:48:57;96047.59;;;21.38;42.96
28000;BME280;15328;50.860;10.562;2022-09-09T15:53:58;96047.66;;;21.14;43.12
28000;BME280;15328;50.860;10.562;2022-09-09T15:58:59;96050.38;;;21.14;42.86
28000;BME280;15328;50.860;10.562;2022-09-09T16:03:59;96044.97;;;20.95;43.48
28000;BME280;15328;50.860;10.562;2022-09-09T16:09:01;96045.69;;;21.19;43.39
28000;BME280;15328;50.860;10.562;2022-09-09T16:14:02;96049.19;;;21.01;43.38
28000;BME280;15328;50.860;10.562;2022-09-09T16:19:04;96053.00;;;21.00;44.07
28000;BME280;15328;50.860;10.562;2022-09-09T16:24:06;96052.69;;;21.02;43.83
28000;BME280;15328;50.860;10.562;2022-09-09T16:29:07;96061.78;;;21.11;43.22
28000;BME280;15328;50.860;10.562;2022-09-09T16:34:08;96064.69;;;20.95;43.67
28000;BME280;15328;50.860;10.562;2022-09-09T16:39:16;96073.53;;;20.82;43.88
28000;BME280;15328;50.860;10.562;2022-09-09T16:44:17;96085.41;;;20.81;45.01
28000;BME280;15328;50.860;10.562;2022-09-09T16:49:18;96072.56;;;20.73;44.60
28000;BME280;15328;50.860;10.562;2022-09-09T16:54:19;96087.59;;;20.79;44.08
28000;BME280;15328;50.860;10.562;2022-09-09T16:59:20;96086.06;;;20.73;44.66
28000;BME280;15328;50.860;10.562;2022-09-09T17:04:23;96103.13;;;20.50;44.75
28000;BME280;15328;50.860;10.562;2022-09-09T17:09:25;96107.00;;;20.38;45.70
28000;BME280;15328;50.860;10.562;2022-09-09T17:14:28;96106.06;;;20.24;45.17
28000;BME280;15328;50.860;10.562;2022-09-09T17:19:31;96103.44;;;20.19;45.15
28000;BME280;15328;50.860;10.562;2022-09-09T17:24:31;96107.34;;;20.08;45.18
28000;BME280;15328;50.860;10.562;2022-09-09T17:29:32;96112.41;;;19.86;44.03
28000;BME280;15328;50.860;10.562;2022-09-09T17:34:36;96106.50;;;19.84;43.92
28000;BME280;15328;50.860;10.562;2022-09-09T17:39:36;96116.59;;;19.73;43.78
28000;BME280;15328;50.860;10.562;2022-09-09T17:44:36;96133.13;;;19.61;44.28
28000;BME280;15328;50.860;10.562;2022-09-09T17:49:37;96145.84;;;19.51;45.31
28000;BME280;15328;50.860;10.562;2022-09-09T17:54:38;96146.75;;;19.36;46.17
28000;BME280;15328;50.860;10.562;2022-09-09T17:59:41;96147.13;;;19.24;46.54
28000;BME280;15328;50.860;10.562;2022-09-09T18:04:41;96143.22;;;18.96;47.59
28000;BME280;15328;50.860;10.562;2022-09-09T18:09:41;96151.06;;;18.88;47.81
28000;BME280;15328;50.860;10.562;2022-09-09T18:14:42;96153.59;;;18.69;48.77
28000;BME280;15328;50.860;10.562;2022-09-09T18:19:42;96152.03;;;18.47;49.55
28000;BME280;15328;50.860;10.562;2022-09-09T18:24:43;96159.09;;;18.23;50.66
28000;BME280;15328;50.860;10.562;2022-09-09T18:29:47;96156.69;;;18.01;50.83
28000;BME280;15328;50.860;10.562;2022-09-09T18:34:47;96145.91;;;18.06;50.54
28000;BME280;15328;50.860;10.562;2022-09-09T18:39:47;96147.59;;;17.82;51.38
28000;BME280;15328;50.860;10.562;2022-09-09T18:44:48;96140.03;;;17.79;52.11
28000;BME280;15328;50.860;10.562;2022-09-09T18:49:48;96136.81;;;17.77;52.53
28000;BME280;15328;50.860;10.562;2022-09-09T18:54:49;96139.22;;;17.78;52.88
28000;BME280;15328;50.860;10.562;2022-09-09T18:59:50;96130.91;;;17.85;53.09
28000;BME280;15328;50.860;10.562;2022-09-09T19:04:53;96126.03;;;17.92;52.73
28000;BME280;15328;50.860;10.562;2022-09-09T19:09:53;96131.97;;;17.94;52.98
28000;BME280;15328;50.860;10.562;2022-09-09T19:14:54;96141.66;;;17.90;53.43
28000;BME280;15328;50.860;10.562;2022-09-09T19:19:54;96147.03;;;17.90;53.42
28000;BME280;15328;50.860;10.562;2022-09-09T19:24:54;96148.91;;;17.89;53.18
28000;BME280;15328;50.860;10.562;2022-09-09T19:29:55;96156.97;;;17.79;53.65
28000;BME280;15328;50.860;10.562;2022-09-09T19:34:55;96163.69;;;17.77;53.80
28000;BME280;15328;50.860;10.562;2022-09-09T19:39:56;96161.28;;;17.55;54.14
28000;BME280;15328;50.860;10.562;2022-09-09T19:44:56;96162.31;;;17.49;54.30
28000;BME280;15328;50.860;10.562;2022-09-09T19:49:56;96168.78;;;17.48;54.41
28000;BME280;15328;50.860;10.562;2022-09-09T19:54:57;96167.69;;;17.49;54.15
28000;BME280;15328;50.860;10.562;2022-09-09T19:59:57;96173.63;;;17.51;54.30
28000;BME280;15328;50.860;10.562;2022-09-09T20:04:59;96182.22;;;17.48;54.72
28000;BME280;15328;50.860;10.562;2022-09-09T20:10:00;96181.69;;;17.46;54.75
28000;BME280;15328;50.860;10.562;2022-09-09T20:15:00;96192.44;;;17.46;54.41
28000;BME280;15328;50.860;10.562;2022-09-09T20:20:00;96194.34;;;17.60;53.65
28000;BME280;15328;50.860;10.562;2022-09-09T20:25:02;96185.16;;;17.46;54.10
28000;BME280;15328;50.860;10.562;2022-09-09T20:30:03;96181.13;;;17.39;54.69
28000;BME280;15328;50.860;10.562;2022-09-09T20:35:04;96183.56;;;17.35;54.58
28000;BME280;15328;50.860;10.562;2022-09-09T20:40:04;96187.31;;;17.39;54.47
28000;BME280;15328;50.860;10.562;2022-09-09T20:45:04;96187.06;;;17.41;54.47
28000;BME280;15328;50.860;10.562;2022-09-09T20:50:05;96185.16;;;17.46;54.12
28000;BME280;15328;50.860;10.562;2022-09-09T20:55:05;96194.03;;;17.37;54.47
28000;BME280;15328;50.860;10.562;2022-09-09T21:00:06;96192.97;;;17.33;54.69
28000;BME280;15328;50.860;10.562;2022-09-09T21:05:07;96188.94;;;17.30;54.64
28000;BME280;15328;50.860;10.562;2022-09-09T21:10:08;96182.75;;;17.29;54.78
28000;BME280;15328;50.860;10.562;2022-09-09T21:15:08;96182.44;;;17.21;54.46
28000;BME280;15328;50.860;10.562;2022-09-09T21:20:08;96178.41;;;17.18;54.74
28000;BME280;15328;50.860;10.562;2022-09-09T21:25:09;96178.13;;;17.25;54.64
28000;BME280;15328;50.860;10.562;2022-09-09T21:30:10;96181.38;;;17.22;54.74
28000;BME280;15328;50.860;10.562;2022-09-09T21:35:10;96177.91;;;17.26;54.38
28000;BME280;15328;50.860;10.562;2022-09-09T21:40:12;96184.59;;;17.24;54.76
28000;BME280;15328;50.860;10.562;2022-09-09T21:45:12;96178.97;;;17.30;54.50
28000;BME280;15328;50.860;10.562;2022-09-09T21:50:13;96176.00;;;17.22;54.66
28000;BME280;15328;50.860;10.562;2022-09-09T21:55:14;96179.25;;;17.44;54.49
28000;BME280;15328;50.860;10.562;2022-09-09T22:00:15;96177.91;;;17.37;54.54
28000;BME280;15328;50.860;10.562;2022-09-09T22:05:17;96179.53;;;17.38;54.66
28000;BME280;15328;50.860;10.562;2022-09-09T22:10:17;96176.56;;;17.44;54.73
28000;BME280;15328;50.860;10.562;2022-09-09T22:15:19;96177.38;;;17.45;54.33
28000;BME280;15328;50.860;10.562;2022-09-09T22:20:20;96178.72;;;17.32;54.48
28000;BME280;15328;50.860;10.562;2022-09-09T22:25:20;96174.69;;;17.35;54.71
28000;BME280;15328;50.860;10.562;2022-09-09T22:30:20;96173.34;;;17.27;54.64
28000;BME280;15328;50.860;10.562;2022-09-09T22:35:21;96175.72;;;17.18;55.24
28000;BME280;15328;50.860;10.562;2022-09-09T22:40:21;96177.06;;;17.16;55.48
28000;BME280;15328;50.860;10.562;2022-09-09T22:45:21;96178.38;;;17.03;56.18
28000;BME280;15328;50.860;10.562;2022-09-09T22:50:22;96180.75;;;16.94;55.88
28000;BME280;15328;50.860;10.562;2022-09-09T22:55:22;96179.41;;;16.97;56.27
28000;BME280;15328;50.860;10.562;2022-09-09T23:00:22;96187.47;;;16.92;56.62
28000;BME280;15328;50.860;10.562;2022-09-09T23:05:23;96182.69;;;17.04;56.12
28000;BME280;15328;50.860;10.562;2022-09-09T23:10:24;96177.53;;;16.92;56.44
28000;BME280;15328;50.860;10.562;2022-09-09T23:15:26;96189.59;;;16.90;56.53
28000;BME280;15328;50.860;10.562;2022-09-09T23:20:27;96192.00;;;16.81;56.84
28000;BME280;15328;50.860;10.562;2022-09-09T23:25:27;96187.41;;;16.77;57.50
28000;BME280;15328;50.860;10.562;2022-09-09T23:30:28;96187.09;;;16.68;57.67
28000;BME280;15328;50.860;10.562;2022-09-09T23:35:29;96184.16;;;16.69;57.75
28000;BME280;15328;50.860;10.562;2022-09-09T23:40:29;96169.69;;;16.76;57.49
28000;BME280;15328;50.860;10.562;2022-09-09T23:45:30;96177.22;;;16.74;57.15
28000;BME280;15328;50.860;10.562;2022-09-09T23:50:31;96162.44;;;16.71;57.58
28000;BME280;15328;50.860;10.562;2022-09-09T23:55:31;96167.81;;;16.76;57.57
